sensor_id;sensor_type;location;lat;lon;timestamp;P1;durP1;ratioP1;P2;durP2;ratioP2
50483;SDS011;36409;52.168;20.878;2024-02-26T00:00:59;23.40;;;12.60;;
50483;SDS011;36409;52.168;20.878;2024-02-26T00:03:53;24.37;;;12.53;;
50483;SDS011;36409;52.168;20.878;2024-02-26T00:06:33;21.03;;;12.33;;
50483;SDS011;36409;52.168;20.878;2024-02-26T00:09:06;22.75;;;13.30;;
50483;SDS011;36409;52.168;20.878;2024-02-26T00:11:39;22.00;;;13.27;;
50483;SDS011;36409;52.168;20.878;2024-02-26T00:14:11;20.90;;;12.57;;
50483;SDS011;36409;52.168;20.878;2024-02-26T00:16:44;19.43;;;12.37;;
50483;SDS011;36409;52.168;20.878;2024-02-26T00:19:16;23.20;;;12.67;;
50483;SDS011;36409;52.168;20.878;2024-02-26T00:21:49;25.20;;;13.07;;
50483;SDS011;36409;52.168;20.878;2024-02-26T00:24:23;23.80;;;12.35;;
50483;SDS011;36409;52.168;20.878;2024-02-26T00:26:55;28.77;;;13.67;;
50483;SDS011;36409;52.168;20.878;2024-02-26T00:29:29;24.67;;;13.63;;
50483;SDS011;36409;52.168;20.878;2024-02-26T00:32:06;25.77;;;13.27;;
50483;SDS011;36409;52.168;20.878;2024-02-26T00:34:39;28.50;;;16.23;;
50483;SDS011;36409;52.168;20.878;2024-02-26T00:37:11;31.97;;;18.00;;
50483;SDS011;36409;52.168;20.878;2024-02-26T00:39:43;34.30;;;19.13;;
50483;SDS011;36409;52.168;20.878;2024-02-26T00:42:17;36.53;;;19.70;;
50483;SDS011;36409;52.168;20.878;2024-02-26T00:44:49;38.07;;;19.60;;
50483;SDS011;36409;52.168;20.878;2024-02-26T00:47:22;39.70;;;20.37;;
50483;SDS011;36409;52.168;20.878;2024-02-26T00:49:54;43.17;;;20.83;;
50483;SDS011;36409;52.168;20.878;2024-02-26T00:52:27;36.90;;;19.87;;
50483;SDS011;36409;52.168;20.878;2024-02-26T00:55:01;37.10;;;19.80;;
50483;SDS011;36409;52.168;20.878;2024-02-26T00:57:41;36.90;;;20.07;;
50483;SDS011;36409;52.168;20.878;2024-02-26T01:00:15;42.47;;;19.47;;
50483;SDS011;36409;52.168;20.878;2024-02-26T01:02:49;37.30;;;19.80;;
50483;SDS011;36409;52.168;20.878;2024-02-26T01:05:21;37.10;;;19.50;;
50483;SDS011;36409;52.168;20.878;2024-02-26T01:07:54;34.33;;;19.77;;
50483;SDS011;36409;52.168;20.878;2024-02-26T01:10:26;34.50;;;18.50;;
50483;SDS011;36409;52.168;20.878;2024-02-26T01:13:01;37.30;;;19.67;;
50483;SDS011;36409;52.168;20.878;2024-02-26T01:15:39;40.10;;;20.17;;
50483;SDS011;36409;52.168;20.878;2024-02-26T01:18:14;36.27;;;18.87;;
50483;SDS011;36409;52.168;20.878;2024-02-26T01:20:47;34.23;;;19.97;;
50483;SDS011;36409;52.168;20.878;2024-02-26T01:23:20;39.43;;;19.23;;
50483;SDS011;36409;52.168;20.878;2024-02-26T01:25:53;32.83;;;18.50;;
50483;SDS011;36409;52.168;20.878;2024-02-26T01:28:25;41.43;;;19.67;;
50483;SDS011;36409;52.168;20.878;2024-02-26T01:30:59;33.23;;;19.33;;
50483;SDS011;36409;52.168;20.878;2024-02-26T01:33:50;33.30;;;17.50;;
50483;SDS011;36409;52.168;20.878;2024-02-26T01:36:23;33.43;;;18.47;;
50483;SDS011;36409;52.168;20.878;2024-02-26T01:38:56;38.33;;;21.67;;
50483;SDS011;36409;52.168;20.878;2024-02-26T01:41:28;41.47;;;20.43;;
50483;SDS011;36409;52.168;20.878;2024-02-26T01:44:01;36.67;;;20.50;;
50483;SDS011;36409;52.168;20.878;2024-02-26T01:46:36;37.73;;;19.63;;
50483;SDS011;36409;52.168;20.878;2024-02-26T01:49:14;39.50;;;19.63;;
50483;SDS011;36409;52.168;20.878;2024-02-26T01:51:51;33.13;;;18.87;;
50483;SDS011;36409;52.168;20.878;2024-02-26T01:54:24;37.67;;;19.17;;
50483;SDS011;36409;52.168;20.878;2024-02-26T01:56:56;36.33;;;19.60;;
50483;SDS011;36409;52.168;20.878;2024-02-26T01:59:30;38.23;;;19.53;;
50483;SDS011;36409;52.168;20.878;2024-02-26T02:02:03;36.77;;;19.73;;
50483;SDS011;36409;52.168;20.878;2024-02-26T02:04:39;36.90;;;19.77;;
50483;SDS011;36409;52.168;20.878;2024-02-26T02:07:25;33.97;;;18.77;;
50483;SDS011;36409;52.168;20.878;2024-02-26T02:09:58;32.77;;;18.40;;
50483;SDS011;36409;52.168;20.878;2024-02-26T02:12:35;35.60;;;18.67;;
50483;SDS011;36409;52.168;20.878;2024-02-26T02:15:10;39.57;;;18.73;;
50483;SDS011;36409;52.168;20.878;2024-02-26T02:17:43;35.27;;;19.33;;
50483;SDS011;36409;52.168;20.878;2024-02-26T02:23:06;33.07;;;17.77;;
50483;SDS011;36409;52.168;20.878;2024-02-26T02:25:38;36.03;;;17.00;;
50483;SDS011;36409;52.168;20.878;2024-02-26T02:28:11;34.30;;;18.60;;
50483;SDS011;36409;52.168;20.878;2024-02-26T02:30:44;31.60;;;17.73;;
50483;SDS011;36409;52.168;20.878;2024-02-26T02:33:18;32.57;;;18.07;;
50483;SDS011;36409;52.168;20.878;2024-02-26T02:35:59;33.47;;;17.87;;
50483;SDS011;36409;52.168;20.878;2024-02-26T02:38:35;33.00;;;18.77;;
50483;SDS011;36409;52.168;20.878;2024-02-26T02:41:08;32.30;;;17.77;;
50483;SDS011;36409;52.168;20.878;2024-02-26T02:43:42;31.87;;;17.23;;
50483;SDS011;36409;52.168;20.878;2024-02-26T02:46:17;30.57;;;16.53;;
50483;SDS011;36409;52.168;20.878;2024-02-26T02:48:51;38.07;;;17.57;;
50483;SDS011;36409;52.168;20.878;2024-02-26T02:51:29;34.30;;;18.00;;
50483;SDS011;36409;52.168;20.878;2024-02-26T02:54:02;34.17;;;18.03;;
50483;SDS011;36409;52.168;20.878;2024-02-26T02:56:37;34.07;;;18.60;;
50483;SDS011;36409;52.168;20.878;2024-02-26T02:59:10;37.77;;;19.73;;
50483;SDS011;36409;52.168;20.878;2024-02-26T03:01:42;35.17;;;19.20;;
50483;SDS011;36409;52.168;20.878;2024-02-26T03:04:14;35.03;;;18.37;;
50483;SDS011;36409;52.168;20.878;2024-02-26T03:06:47;37.73;;;19.33;;
50483;SDS011;36409;52.168;20.878;2024-02-26T03:09:20;36.43;;;19.97;;
50483;SDS011;36409;52.168;20.878;2024-02-26T03:12:02;31.43;;;17.83;;
50483;SDS011;36409;52.168;20.878;2024-02-26T03:14:37;34.20;;;17.43;;
50483;SDS011;36409;52.168;20.878;2024-02-26T03:17:10;34.87;;;17.37;;
50483;SDS011;36409;52.168;20.878;2024-02-26T03:19:42;34.53;;;18.07;;
50483;SDS011;36409;52.168;20.878;2024-02-26T03:22:17;34.73;;;18.90;;
50483;SDS011;36409;52.168;20.878;2024-02-26T03:24:49;34.47;;;18.83;;
50483;SDS011;36409;52.168;20.878;2024-02-26T03:27:21;35.50;;;19.37;;
50483;SDS011;36409;52.168;20.878;2024-02-26T03:29:56;34.13;;;18.30;;
50483;SDS011;36409;52.168;20.878;2024-02-26T03:32:36;34.35;;;18.60;;
50483;SDS011;36409;52.168;20.878;2024-02-26T03:35:09;40.60;;;19.43;;
50483;SDS011;36409;52.168;20.878;2024-02-26T03:37:41;34.73;;;18.27;;
50483;SDS011;36409;52.168;20.878;2024-02-26T03:40:14;34.40;;;19.50;;
50483;SDS011;36409;52.168;20.878;2024-02-26T03:42:48;34.33;;;17.90;;
50483;SDS011;36409;52.168;20.878;2024-02-26T03:45:22;36.00;;;18.60;;
50483;SDS011;36409;52.168;20.878;2024-02-26T03:48:03;34.10;;;18.07;;
50483;SDS011;36409;52.168;20.878;2024-02-26T03:50:39;32.90;;;18.60;;
50483;SDS011;36409;52.168;20.878;2024-02-26T03:53:12;34.63;;;18.83;;
50483;SDS011;36409;52.168;20.878;2024-02-26T03:55:44;35.23;;;18.83;;
50483;SDS011;36409;52.168;20.878;2024-02-26T03:58:17;34.40;;;18.57;;
50483;SDS011;36409;52.168;20.878;2024-02-26T04:00:49;32.30;;;19.25;;
50483;SDS011;36409;52.168;20.878;2024-02-26T04:03:22;36.23;;;20.10;;
50483;SDS011;36409;52.168;20.878;2024-02-26T04:05:57;33.60;;;18.40;;
50483;SDS011;36409;52.168;20.878;2024-02-26T04:08:33;33.10;;;19.47;;
50483;SDS011;36409;52.168;20.878;2024-02-26T04:11:08;35.50;;;19.37;;
50483;SDS011;36409;52.168;20.878;2024-02-26T04:13:42;39.90;;;19.77;;
50483;SDS011;36409;52.168;20.878;2024-02-26T04:16:19;37.73;;;19.83;;
50483;SDS011;36409;52.168;20.878;2024-02-26T04:18:51;34.73;;;18.30;;
50483;SDS011;36409;52.168;20.878;2024-02-26T04:21:24;36.60;;;19.15;;
50483;SDS011;36409;52.168;20.878;2024-02-26T04:23:56;38.07;;;19.17;;
50483;SDS011;36409;52.168;20.878;2024-02-26T04:26:43;37.03;;;19.87;;
50483;SDS011;36409;52.168;20.878;2024-02-26T04:29:15;30.67;;;17.20;;
50483;SDS011;36409;52.168;20.878;2024-02-26T04:31:47;32.47;;;18.50;;
50483;SDS011;36409;52.168;20.878;2024-02-26T04:34:20;35.27;;;18.77;;
50483;SDS011;36409;52.168;20.878;2024-02-26T04:36:53;32.65;;;18.95;;
50483;SDS011;36409;52.168;20.878;2024-02-26T04:39:26;32.33;;;18.40;;
50483;SDS011;36409;52.168;20.878;2024-02-26T04:41:58;31.87;;;17.90;;
50483;SDS011;36409;52.168;20.878;2024-02-26T04:44:41;34.60;;;17.60;;
50483;SDS011;36409;52.168;20.878;2024-02-26T04:47:27;31.10;;;17.43;;
50483;SDS011;36409;52.168;20.878;2024-02-26T04:50:12;32.80;;;16.97;;
50483;SDS011;36409;52.168;20.878;2024-02-26T04:52:45;32.47;;;17.67;;
50483;SDS011;36409;52.168;20.878;2024-02-26T04:55:17;29.33;;;17.83;;
50483;SDS011;36409;52.168;20.878;2024-02-26T04:57:50;31.47;;;18.47;;
50483;SDS011;36409;52.168;20.878;2024-02-26T05:00:22;32.80;;;18.75;;
50483;SDS011;36409;52.168;20.878;2024-02-26T05:02:57;37.83;;;18.97;;
50483;SDS011;36409;52.168;20.878;2024-02-26T05:05:31;31.27;;;16.97;;
50483;SDS011;36409;52.168;20.878;2024-02-26T05:08:18;32.65;;;17.05;;
50483;SDS011;36409;52.168;20.878;2024-02-26T05:10:50;35.27;;;18.90;;
50483;SDS011;36409;52.168;20.878;2024-02-26T05:13:23;31.40;;;18.00;;
50483;SDS011;36409;52.168;20.878;2024-02-26T05:15:55;31.17;;;18.23;;
50483;SDS011;36409;52.168;20.878;2024-02-26T05:18:28;33.65;;;18.65;;
50483;SDS011;36409;52.168;20.878;2024-02-26T05:21:01;31.57;;;17.70;;
50483;SDS011;36409;52.168;20.878;2024-02-26T05:23:42;34.10;;;19.73;;
50483;SDS011;36409;52.168;20.878;2024-02-26T05:26:22;35.93;;;19.13;;
50483;SDS011;36409;52.168;20.878;2024-02-26T05:29:03;34.80;;;19.27;;
50483;SDS011;36409;52.168;20.878;2024-02-26T05:31:53;31.83;;;18.50;;
50483;SDS011;36409;52.168;20.878;2024-02-26T05:34:25;37.53;;;19.67;;
50483;SDS011;36409;52.168;20.878;2024-02-26T05:39:30;33.90;;;18.07;;
50483;SDS011;36409;52.168;20.878;2024-02-26T05:42:03;34.60;;;18.40;;
50483;SDS011;36409;52.168;20.878;2024-02-26T05:44:48;33.17;;;18.63;;
50483;SDS011;36409;52.168;20.878;2024-02-26T05:47:20;37.63;;;19.53;;
50483;SDS011;36409;52.168;20.878;2024-02-26T05:49:53;34.57;;;18.73;;
50483;SDS011;36409;52.168;20.878;2024-02-26T05:52:28;36.50;;;20.13;;
50483;SDS011;36409;52.168;20.878;2024-02-26T05:55:01;33.17;;;20.00;;
50483;SDS011;36409;52.168;20.878;2024-02-26T05:57:34;35.13;;;19.70;;
50483;SDS011;36409;52.168;20.878;2024-02-26T06:00:20;36.80;;;20.67;;
50483;SDS011;36409;52.168;20.878;2024-02-26T06:02:52;40.30;;;19.83;;
50483;SDS011;36409;52.168;20.878;2024-02-26T06:05:25;42.17;;;21.43;;
50483;SDS011;36409;52.168;20.878;2024-02-26T06:08:08;64.30;;;40.20;;
50483;SDS011;36409;52.168;20.878;2024-02-26T06:10:44;56.80;;;35.73;;
50483;SDS011;36409;52.168;20.878;2024-02-26T06:13:17;46.20;;;29.47;;
50483;SDS011;36409;52.168;20.878;2024-02-26T06:15:50;43.57;;;27.50;;
50483;SDS011;36409;52.168;20.878;2024-02-26T06:18:22;39.50;;;22.53;;
50483;SDS011;36409;52.168;20.878;2024-02-26T06:20:57;40.33;;;23.43;;
50483;SDS011;36409;52.168;20.878;2024-02-26T06:23:31;36.40;;;20.43;;
50483;SDS011;36409;52.168;20.878;2024-02-26T06:26:04;35.90;;;20.73;;
50483;SDS011;36409;52.168;20.878;2024-02-26T06:28:37;35.75;;;20.85;;
50483;SDS011;36409;52.168;20.878;2024-02-26T06:31:13;35.53;;;21.77;;
50483;SDS011;36409;52.168;20.878;2024-02-26T06:33:52;35.97;;;21.27;;
50483;SDS011;36409;52.168;20.878;2024-02-26T06:36:29;40.07;;;22.43;;
50483;SDS011;36409;52.168;20.878;2024-02-26T06:39:13;33.27;;;19.77;;
50483;SDS011;36409;52.168;20.878;2024-02-26T06:41:48;36.45;;;21.17;;
50483;SDS011;36409;52.168;20.878;2024-02-26T06:44:23;31.75;;;20.40;;
50483;SDS011;36409;52.168;20.878;2024-02-26T06:47:03;36.33;;;21.10;;
50483;SDS011;36409;52.168;20.878;2024-02-26T06:49:36;36.23;;;20.90;;
50483;SDS011;36409;52.168;20.878;2024-02-26T06:52:11;36.40;;;20.77;;
50483;SDS011;36409;52.168;20.878;2024-02-26T06:54:47;37.23;;;20.83;;
50483;SDS011;36409;52.168;20.878;2024-02-26T06:57:20;35.70;;;20.67;;
50483;SDS011;36409;52.168;20.878;2024-02-26T06:59:53;35.07;;;21.23;;
50483;SDS011;36409;52.168;20.878;2024-02-26T07:02:33;38.77;;;22.13;;
50483;SDS011;36409;52.168;20.878;2024-02-26T07:05:09;33.90;;;21.40;;
50483;SDS011;36409;52.168;20.878;2024-02-26T07:07:42;37.67;;;22.87;;
50483;SDS011;36409;52.168;20.878;2024-02-26T07:10:14;39.17;;;22.50;;
50483;SDS011;36409;52.168;20.878;2024-02-26T07:12:51;36.67;;;21.93;;
50483;SDS011;36409;52.168;20.878;2024-02-26T07:15:23;38.17;;;23.80;;
50483;SDS011;36409;52.168;20.878;2024-02-26T07:18:04;32.70;;;21.85;;
50483;SDS011;36409;52.168;20.878;2024-02-26T07:20:40;31.17;;;20.93;;
50483;SDS011;36409;52.168;20.878;2024-02-26T07:23:15;35.77;;;22.30;;
50483;SDS011;36409;52.168;20.878;2024-02-26T07:25:51;31.90;;;20.30;;
50483;SDS011;36409;52.168;20.878;2024-02-26T07:28:23;34.03;;;21.20;;
50483;SDS011;36409;52.168;20.878;2024-02-26T07:30:56;34.80;;;21.37;;
50483;SDS011;36409;52.168;20.878;2024-02-26T07:33:31;35.45;;;20.40;;
50483;SDS011;36409;52.168;20.878;2024-02-26T07:36:05;29.77;;;19.07;;
50483;SDS011;36409;52.168;20.878;2024-02-26T07:38:40;29.90;;;17.30;;
50483;SDS011;36409;52.168;20.878;2024-02-26T07:41:14;26.10;;;16.60;;
50483;SDS011;36409;52.168;20.878;2024-02-26T07:43:46;24.30;;;16.50;;
50483;SDS011;36409;52.168;20.878;2024-02-26T07:46:19;19.73;;;13.93;;
50483;SDS011;36409;52.168;20.878;2024-02-26T07:48:53;23.57;;;14.80;;
50483;SDS011;36409;52.168;20.878;2024-02-26T07:51:25;19.13;;;13.33;;
50483;SDS011;36409;52.168;20.878;2024-02-26T07:54:05;17.97;;;12.57;;
50483;SDS011;36409;52.168;20.878;2024-02-26T07:56:38;20.32;;;12.98;;
50483;SDS011;36409;52.168;20.878;2024-02-26T07:59:11;18.27;;;13.40;;
50483;SDS011;36409;52.168;20.878;2024-02-26T08:01:50;15.83;;;12.17;;
50483;SDS011;36409;52.168;20.878;2024-02-26T08:04:27;19.77;;;12.17;;
50483;SDS011;36409;52.168;20.878;2024-02-26T08:07:03;18.10;;;12.30;;
50483;SDS011;36409;52.168;20.878;2024-02-26T08:09:45;16.83;;;11.90;;
50483;SDS011;36409;52.168;20.878;2024-02-26T08:12:17;16.93;;;11.10;;
50483;SDS011;36409;52.168;20.878;2024-02-26T08:14:49;19.17;;;11.60;;
50483;SDS011;36409;52.168;20.878;2024-02-26T08:17:23;16.13;;;11.23;;
50483;SDS011;36409;52.168;20.878;2024-02-26T08:19:56;14.27;;;10.80;;
50483;SDS011;36409;52.168;20.878;2024-02-26T08:22:29;17.20;;;10.85;;
50483;SDS011;36409;52.168;20.878;2024-02-26T08:25:02;17.85;;;11.48;;
50483;SDS011;36409;52.168;20.878;2024-02-26T08:27:38;17.23;;;12.00;;
50483;SDS011;36409;52.168;20.878;2024-02-26T08:32:49;16.77;;;12.10;;
50483;SDS011;36409;52.168;20.878;2024-02-26T08:35:22;17.20;;;12.43;;
50483;SDS011;36409;52.168;20.878;2024-02-26T08:37:55;18.27;;;12.73;;
50483;SDS011;36409;52.168;20.878;2024-02-26T08:40:27;17.25;;;11.95;;
50483;SDS011;36409;52.168;20.878;2024-02-26T08:42:59;15.93;;;11.50;;
50483;SDS011;36409;52.168;20.878;2024-02-26T08:45:32;19.33;;;11.53;;
50483;SDS011;36409;52.168;20.878;2024-02-26T08:48:04;17.20;;;10.53;;
50483;SDS011;36409;52.168;20.878;2024-02-26T08:50:38;16.63;;;10.83;;
50483;SDS011;36409;52.168;20.878;2024-02-26T08:53:11;19.13;;;10.87;;
50483;SDS011;36409;52.168;20.878;2024-02-26T08:55:52;15.10;;;10.63;;
50483;SDS011;36409;52.168;20.878;2024-02-26T08:58:25;14.50;;;10.10;;
50483;SDS011;36409;52.168;20.878;2024-02-26T09:00:58;14.17;;;11.13;;
50483;SDS011;36409;52.168;20.878;2024-02-26T09:03:30;16.73;;;11.57;;
50483;SDS011;36409;52.168;20.878;2024-02-26T09:06:04;16.83;;;10.10;;
50483;SDS011;36409;52.168;20.878;2024-02-26T09:08:38;17.17;;;11.20;;
50483;SDS011;36409;52.168;20.878;2024-02-26T09:11:11;14.37;;;10.03;;
50483;SDS011;36409;52.168;20.878;2024-02-26T09:13:43;12.57;;;9.63;;
50483;SDS011;36409;52.168;20.878;2024-02-26T09:16:15;15.10;;;10.80;;
50483;SDS011;36409;52.168;20.878;2024-02-26T09:18:48;17.13;;;10.90;;
50483;SDS011;36409;52.168;20.878;2024-02-26T09:21:23;14.00;;;10.30;;
50483;SDS011;36409;52.168;20.878;2024-02-26T09:23:56;14.13;;;10.13;;
50483;SDS011;36409;52.168;20.878;2024-02-26T09:26:30;18.37;;;9.30;;
50483;SDS011;36409;52.168;20.878;2024-02-26T09:29:06;15.80;;;9.00;;
50483;SDS011;36409;52.168;20.878;2024-02-26T09:31:39;13.10;;;8.98;;
50483;SDS011;36409;52.168;20.878;2024-02-26T09:34:17;12.13;;;9.03;;
50483;SDS011;36409;52.168;20.878;2024-02-26T09:36:49;12.80;;;8.90;;
50483;SDS011;36409;52.168;20.878;2024-02-26T09:39:28;12.67;;;9.30;;
50483;SDS011;36409;52.168;20.878;2024-02-26T09:42:01;14.15;;;9.60;;
50483;SDS011;36409;52.168;20.878;2024-02-26T09:44:39;12.53;;;8.87;;
50483;SDS011;36409;52.168;20.878;2024-02-26T09:47:14;12.37;;;9.23;;
50483;SDS011;36409;52.168;20.878;2024-02-26T09:49:46;15.50;;;9.53;;
50483;SDS011;36409;52.168;20.878;2024-02-26T09:52:20;14.78;;;9.55;;
50483;SDS011;36409;52.168;20.878;2024-02-26T09:54:54;15.10;;;10.00;;
50483;SDS011;36409;52.168;20.878;2024-02-26T09:57:26;10.93;;;8.33;;
50483;SDS011;36409;52.168;20.878;2024-02-26T10:00:00;11.30;;;8.90;;
50483;SDS011;36409;52.168;20.878;2024-02-26T10:02:39;13.47;;;9.70;;
50483;SDS011;36409;52.168;20.878;2024-02-26T10:05:12;11.22;;;8.75;;
50483;SDS011;36409;52.168;20.878;2024-02-26T10:07:47;11.95;;;8.70;;
50483;SDS011;36409;52.168;20.878;2024-02-26T10:10:21;11.53;;;8.20;;
50483;SDS011;36409;52.168;20.878;2024-02-26T10:12:54;10.93;;;8.20;;
50483;SDS011;36409;52.168;20.878;2024-02-26T10:15:27;9.90;;;7.47;;
50483;SDS011;36409;52.168;20.878;2024-02-26T10:17:59;11.70;;;8.83;;
50483;SDS011;36409;52.168;20.878;2024-02-26T10:20:34;10.37;;;7.70;;
50483;SDS011;36409;52.168;20.878;2024-02-26T10:23:06;13.33;;;7.47;;
50483;SDS011;36409;52.168;20.878;2024-02-26T10:25:47;10.47;;;7.30;;
50483;SDS011;36409;52.168;20.878;2024-02-26T10:28:24;12.33;;;7.07;;
50483;SDS011;36409;52.168;20.878;2024-02-26T10:31:00;10.20;;;6.63;;
50483;SDS011;36409;52.168;20.878;2024-02-26T10:33:34;9.80;;;7.37;;
50483;SDS011;36409;52.168;20.878;2024-02-26T10:36:12;9.30;;;7.17;;
50483;SDS011;36409;52.168;20.878;2024-02-26T10:38:45;11.48;;;7.37;;
50483;SDS011;36409;52.168;20.878;2024-02-26T10:41:20;10.20;;;7.30;;
50483;SDS011;36409;52.168;20.878;2024-02-26T10:43:58;9.50;;;7.43;;
50483;SDS011;36409;52.168;20.878;2024-02-26T10:46:31;12.60;;;8.53;;
50483;SDS011;36409;52.168;20.878;2024-02-26T10:49:14;14.33;;;9.17;;
50483;SDS011;36409;52.168;20.878;2024-02-26T10:51:52;12.87;;;9.90;;
50483;SDS011;36409;52.168;20.878;2024-02-26T10:54:27;11.97;;;8.93;;
50483;SDS011;36409;52.168;20.878;2024-02-26T10:57:03;13.07;;;9.90;;
50483;SDS011;36409;52.168;20.878;2024-02-26T10:59:38;14.00;;;9.97;;
50483;SDS011;36409;52.168;20.878;2024-02-26T11:02:15;12.30;;;9.85;;
50483;SDS011;36409;52.168;20.878;2024-02-26T11:04:48;13.53;;;9.40;;
50483;SDS011;36409;52.168;20.878;2024-02-26T11:07:21;11.27;;;9.03;;
50483;SDS011;36409;52.168;20.878;2024-02-26T11:09:57;11.80;;;8.23;;
50483;SDS011;36409;52.168;20.878;2024-02-26T11:12:33;11.53;;;8.97;;
50483;SDS011;36409;52.168;20.878;2024-02-26T11:15:08;14.10;;;9.63;;
50483;SDS011;36409;52.168;20.878;2024-02-26T11:17:42;12.83;;;9.23;;
50483;SDS011;36409;52.168;20.878;2024-02-26T11:20:17;13.43;;;8.73;;
50483;SDS011;36409;52.168;20.878;2024-02-26T11:22:55;11.70;;;8.07;;
50483;SDS011;36409;52.168;20.878;2024-02-26T11:25:27;9.63;;;7.03;;
50483;SDS011;36409;52.168;20.878;2024-02-26T11:28:04;9.80;;;7.70;;
50483;SDS011;36409;52.168;20.878;2024-02-26T11:30:42;11.23;;;8.17;;
50483;SDS011;36409;52.168;20.878;2024-02-26T11:33:22;10.23;;;8.10;;
50483;SDS011;36409;52.168;20.878;2024-02-26T11:35:55;10.03;;;7.42;;
50483;SDS011;36409;52.168;20.878;2024-02-26T11:38:28;11.70;;;7.57;;
50483;SDS011;36409;52.168;20.878;2024-02-26T11:41:01;9.63;;;7.33;;
50483;SDS011;36409;52.168;20.878;2024-02-26T11:43:53;10.53;;;7.07;;
50483;SDS011;36409;52.168;20.878;2024-02-26T11:46:31;10.93;;;6.40;;
50483;SDS011;36409;52.168;20.878;2024-02-26T11:52:06;10.03;;;6.33;;
50483;SDS011;36409;52.168;20.878;2024-02-26T11:54:47;9.50;;;6.60;;
50483;SDS011;36409;52.168;20.878;2024-02-26T11:57:25;8.07;;;5.93;;
50483;SDS011;36409;52.168;20.878;2024-02-26T12:00:12;8.57;;;6.53;;
50483;SDS011;36409;52.168;20.878;2024-02-26T12:02:46;8.40;;;6.03;;
50483;SDS011;36409;52.168;20.878;2024-02-26T12:05:30;7.27;;;5.37;;
50483;SDS011;36409;52.168;20.878;2024-02-26T12:08:06;7.23;;;5.10;;
50483;SDS011;36409;52.168;20.878;2024-02-26T12:10:46;7.80;;;5.40;;
50483;SDS011;36409;52.168;20.878;2024-02-26T12:13:18;7.53;;;4.90;;
50483;SDS011;36409;52.168;20.878;2024-02-26T12:15:59;7.07;;;4.77;;
50483;SDS011;36409;52.168;20.878;2024-02-26T12:18:42;8.70;;;5.13;;
50483;SDS011;36409;52.168;20.878;2024-02-26T12:21:16;7.00;;;5.17;;
50483;SDS011;36409;52.168;20.878;2024-02-26T12:23:55;13.73;;;5.37;;
50483;SDS011;36409;52.168;20.878;2024-02-26T12:26:42;6.77;;;4.73;;
50483;SDS011;36409;52.168;20.878;2024-02-26T12:29:17;7.30;;;5.13;;
50483;SDS011;36409;52.168;20.878;2024-02-26T12:31:49;7.23;;;4.73;;
50483;SDS011;36409;52.168;20.878;2024-02-26T12:34:22;6.13;;;4.33;;
50483;SDS011;36409;52.168;20.878;2024-02-26T12:36:54;7.00;;;5.13;;
50483;SDS011;36409;52.168;20.878;2024-02-26T12:39:27;6.97;;;3.93;;
50483;SDS011;36409;52.168;20.878;2024-02-26T12:42:00;5.90;;;3.87;;
50483;SDS011;36409;52.168;20.878;2024-02-26T12:44:34;5.67;;;4.15;;
50483;SDS011;36409;52.168;20.878;2024-02-26T12:47:06;8.57;;;4.40;;
50483;SDS011;36409;52.168;20.878;2024-02-26T12:49:39;5.95;;;4.17;;
50483;SDS011;36409;52.168;20.878;2024-02-26T12:54:45;6.63;;;4.23;;
50483;SDS011;36409;52.168;20.878;2024-02-26T12:57:17;5.87;;;3.80;;
50483;SDS011;36409;52.168;20.878;2024-02-26T12:59:50;6.43;;;3.57;;
50483;SDS011;36409;52.168;20.878;2024-02-26T13:02:22;9.40;;;4.40;;
50483;SDS011;36409;52.168;20.878;2024-02-26T13:04:56;7.37;;;3.90;;
50483;SDS011;36409;52.168;20.878;2024-02-26T13:07:30;6.70;;;4.30;;
50483;SDS011;36409;52.168;20.878;2024-02-26T13:10:03;6.67;;;3.57;;
50483;SDS011;36409;52.168;20.878;2024-02-26T13:12:38;6.63;;;4.17;;
50483;SDS011;36409;52.168;20.878;2024-02-26T13:15:17;8.00;;;4.03;;
50483;SDS011;36409;52.168;20.878;2024-02-26T13:17:58;9.30;;;4.00;;
50483;SDS011;36409;52.168;20.878;2024-02-26T13:20:43;8.37;;;3.70;;
50483;SDS011;36409;52.168;20.878;2024-02-26T13:23:15;6.03;;;3.67;;
50483;SDS011;36409;52.168;20.878;2024-02-26T13:25:48;5.87;;;3.67;;
50483;SDS011;36409;52.168;20.878;2024-02-26T13:28:26;9.43;;;3.97;;
50483;SDS011;36409;52.168;20.878;2024-02-26T13:30:59;6.10;;;3.80;;
50483;SDS011;36409;52.168;20.878;2024-02-26T13:33:34;6.93;;;3.90;;
50483;SDS011;36409;52.168;20.878;2024-02-26T13:36:06;5.57;;;2.97;;
50483;SDS011;36409;52.168;20.878;2024-02-26T13:38:52;5.87;;;3.13;;
50483;SDS011;36409;52.168;20.878;2024-02-26T13:41:28;7.00;;;3.80;;
50483;SDS011;36409;52.168;20.878;2024-02-26T13:46:43;5.70;;;3.20;;
50483;SDS011;36409;52.168;20.878;2024-02-26T13:49:20;5.97;;;3.47;;
50483;SDS011;36409;52.168;20.878;2024-02-26T13:51:58;5.10;;;2.93;;
50483;SDS011;36409;52.168;20.878;2024-02-26T13:54:30;7.03;;;3.10;;
50483;SDS011;36409;52.168;20.878;2024-02-26T13:57:04;5.70;;;3.47;;
50483;SDS011;36409;52.168;20.878;2024-02-26T13:59:41;5.80;;;3.07;;
50483;SDS011;36409;52.168;20.878;2024-02-26T14:02:13;4.37;;;2.80;;
50483;SDS011;36409;52.168;20.878;2024-02-26T14:04:46;4.33;;;2.47;;
50483;SDS011;36409;52.168;20.878;2024-02-26T14:07:21;3.80;;;2.23;;
50483;SDS011;36409;52.168;20.878;2024-02-26T14:09:56;4.40;;;2.40;;
50483;SDS011;36409;52.168;20.878;2024-02-26T14:12:31;4.73;;;2.50;;
50483;SDS011;36409;52.168;20.878;2024-02-26T14:15:04;4.17;;;2.47;;
50483;SDS011;36409;52.168;20.878;2024-02-26T14:17:40;5.13;;;2.80;;
50483;SDS011;36409;52.168;20.878;2024-02-26T14:20:14;6.42;;;2.77;;
50483;SDS011;36409;52.168;20.878;2024-02-26T14:22:54;6.63;;;2.90;;
50483;SDS011;36409;52.168;20.878;2024-02-26T14:25:27;5.27;;;2.70;;
50483;SDS011;36409;52.168;20.878;2024-02-26T14:27:59;4.93;;;2.60;;
50483;SDS011;36409;52.168;20.878;2024-02-26T14:30:32;5.05;;;2.60;;
50483;SDS011;36409;52.168;20.878;2024-02-26T14:33:05;7.83;;;2.87;;
50483;SDS011;36409;52.168;20.878;2024-02-26T14:35:49;6.17;;;2.67;;
50483;SDS011;36409;52.168;20.878;2024-02-26T14:38:21;4.97;;;3.00;;
50483;SDS011;36409;52.168;20.878;2024-02-26T14:40:56;5.53;;;2.93;;
50483;SDS011;36409;52.168;20.878;2024-02-26T14:43:29;5.90;;;3.00;;
50483;SDS011;36409;52.168;20.878;2024-02-26T14:46:01;4.20;;;2.80;;
50483;SDS011;36409;52.168;20.878;2024-02-26T14:48:34;4.60;;;2.80;;
50483;SDS011;36409;52.168;20.878;2024-02-26T14:51:07;8.35;;;2.92;;
50483;SDS011;36409;52.168;20.878;2024-02-26T14:53:50;5.20;;;2.87;;
50483;SDS011;36409;52.168;20.878;2024-02-26T14:56:23;5.10;;;2.93;;
50483;SDS011;36409;52.168;20.878;2024-02-26T14:59:16;7.60;;;3.13;;
50483;SDS011;36409;52.168;20.878;2024-02-26T15:01:52;4.90;;;3.05;;
50483;SDS011;36409;52.168;20.878;2024-02-26T15:04:24;6.53;;;3.20;;
50483;SDS011;36409;52.168;20.878;2024-02-26T15:06:56;6.27;;;3.40;;
50483;SDS011;36409;52.168;20.878;2024-02-26T15:09:34;7.53;;;3.60;;
50483;SDS011;36409;52.168;20.878;2024-02-26T15:12:07;5.30;;;3.05;;
50483;SDS011;36409;52.168;20.878;2024-02-26T15:14:42;6.60;;;3.63;;
50483;SDS011;36409;52.168;20.878;2024-02-26T15:17:17;7.33;;;3.20;;